Time;durP1;ratioP1;P1;durP2;ratioP2;P2;SDS_P1;SDS_P2;PMS_P1;PMS_P2;Temp;Humidity;BMP_temperature;BMP_pressure;BME280_temperature;BME280_humidity;BME280_pressure;Samples;Min_cycle;Max_cycle;Signal;HPM_P1;HPM_P2
2022/06/29 00:02:01;;;;;;;6.88;1.90;;;;;;;24.54;35.92;100477.88;4989369;28;20088;-85
2022/06/29 00:04:26;;;;;;;8.80;2.45;;;;;;;24.61;36.06;100482.63;4989395;28;20042;-85
2022/06/29 00:06:52;;;;;;;12.00;2.85;;;;;;;24.57;35.96;100481.88;4989306;28;20112;-84
2022/06/29 00:09:17;;;;;;;7.28;2.45;;;;;;;24.33;36.46;100481.69;4974099;28;20087;-85
2022/06/29 00:11:43;;;;;;;9.63;2.58;;;;;;;24.34;36.31;100480.50;4988992;28;20441;-85
2022/06/29 00:14:08;;;;;;;7.47;2.38;;;;;;;24.37;36.09;100483.66;4989025;28;20030;-85
2022/06/29 00:16:34;;;;;;;13.40;2.40;;;;;;;24.28;36.37;100479.31;4974131;28;20063;-84
2022/06/29 00:19:00;;;;;;;9.70;2.58;;;;;;;24.18;36.80;100473.81;4974053;28;20153;-84
2022/06/29 00:21:25;;;;;;;7.47;2.33;;;;;;;24.14;36.54;100485.03;4989062;28;20039;-85
2022/06/29 00:23:54;;;;;;;12.20;2.80;;;;;;;24.08;37.04;100481.88;4989032;28;20081;-87
2022/06/29 00:26:19;;;;;;;8.48;2.13;;;;;;;24.07;36.80;100473.91;4972495;28;20605;-85
2022/06/29 00:28:45;;;;;;;8.18;2.17;;;;;;;24.00;36.80;100477.56;4972754;28;20065;-87
2022/06/29 00:31:11;;;;;;;10.90;3.15;;;;;;;23.97;36.87;100480.38;4988947;28;20100;-85
2022/06/29 00:33:36;;;;;;;14.80;3.00;;;;;;;23.88;37.06;100475.28;4988753;28;20039;-85
2022/06/29 00:36:02;;;;;;;6.88;2.00;;;;;;;23.81;37.13;100480.91;4988901;28;20030;-84
2022/06/29 00:38:28;;;;;;;7.18;2.05;;;;;;;23.82;37.22;100476.13;4988902;28;20485;-85
2022/06/29 00:40:53;;;;;;;9.35;2.78;;;;;;;23.74;37.19;100476.16;4972692;28;20505;-86
2022/06/29 00:43:19;;;;;;;6.72;2.08;;;;;;;23.74;37.30;100478.97;4972702;28;20034;-85
2022/06/29 00:45:44;;;;;;;6.32;2.10;;;;;;;23.69;37.37;100476.59;4989161;28;20027;-86
2022/06/29 00:48:10;;;;;;;7.22;2.17;;;;;;;23.73;37.27;100473.78;4974049;28;20031;-84
2022/06/29 00:50:38;;;;;;;16.55;3.75;;;;;;;23.75;36.98;100468.59;4972295;28;20039;-84
2022/06/29 00:53:05;;;;;;;11.55;2.63;;;;;;;23.73;37.40;100471.00;4988713;28;20027;-85
2022/06/29 00:55:37;;;;;;;7.40;2.53;;;;;;;23.68;37.41;100477.78;4972585;28;20031;-85
2022/06/29 00:58:05;;;;;;;7.30;2.70;;;;;;;23.69;37.88;100473.00;4988633;28;20034;-85
2022/06/29 01:00:34;;;;;;;10.40;2.78;;;;;;;23.70;37.41;100480.97;4988738;28;20031;-86
2022/06/29 01:03:00;;;;;;;8.07;2.58;;;;;;;23.91;36.90;100466.06;4988516;28;20434;-85
2022/06/29 01:05:27;;;;;;;11.38;3.25;;;;;;;23.95;36.77;100472.41;4988237;28;20062;-85
2022/06/29 01:07:53;;;;;;;4.57;1.80;;;;;;;23.94;36.92;100472.81;4976378;28;20353;-87
2022/06/29 01:10:22;;;;;;;9.63;2.45;;;;;;;23.61;37.60;100477.03;4992280;28;20041;-84
2022/06/29 01:12:51;;;;;;;7.00;1.85;;;;;;;23.60;37.76;100469.84;4992124;28;20045;-83
2022/06/29 01:15:18;;;;;;;10.98;2.67;;;;;;;23.57;37.39;100468.66;4992302;28;20051;-84
2022/06/29 01:17:44;;;;;;;12.98;3.13;;;;;;;23.58;37.68;100470.28;4992050;28;20042;-85
2022/06/29 01:20:10;;;;;;;8.18;2.15;;;;;;;23.51;37.97;100461.94;4991968;28;20050;-85
2022/06/29 01:22:37;;;;;;;7.70;2.63;;;;;;;23.57;37.90;100470.66;4977018;28;20070;-84
2022/06/29 01:25:03;;;;;;;6.28;2.30;;;;;;;23.59;37.75;100462.69;4975771;28;20113;-85
2022/06/29 01:27:29;;;;;;;9.63;2.53;;;;;;;23.57;37.91;100470.66;4991623;28;20493;-84
2022/06/29 01:29:55;;;;;;;8.98;2.25;;;;;;;23.63;37.74;100464.28;4992005;28;20085;-86
2022/06/29 01:32:22;;;;;;;7.43;2.10;;;;;;;23.70;37.92;100464.22;4975558;28;20499;-85
2022/06/29 01:34:48;;;;;;;9.40;2.30;;;;;;;23.75;37.58;100461.00;4975420;28;20027;-84
2022/06/29 01:37:13;;;;;;;8.02;2.08;;;;;;;23.77;37.80;100463.38;4991458;28;20026;-84
2022/06/29 01:39:40;;;;;;;6.07;1.77;;;;;;;23.78;37.65;100460.19;4991384;28;20109;-85
2022/06/29 01:42:07;;;;;;;7.80;2.28;;;;;;;23.77;37.84;100461.38;4975534;28;20018;-85
2022/06/29 01:44:34;;;;;;;9.00;2.63;;;;;;;23.81;37.82;100458.59;4991710;28;20381;-85
2022/06/29 01:47:01;;;;;;;9.40;2.65;;;;;;;23.81;37.85;100461.38;4976751;28;20442;-87
2022/06/29 01:49:28;;;;;;;10.70;2.55;;;;;;;23.83;37.85;100463.75;4991634;28;20085;-85
2022/06/29 01:51:54;;;;;;;8.38;2.88;;;;;;;23.84;37.87;100459.75;4976404;28;20022;-86
2022/06/29 01:54:21;;;;;;;11.32;2.95;;;;;;;23.85;37.82;100461.34;4976659;28;20086;-86
2022/06/29 01:56:46;;;;;;;6.97;2.05;;;;;;;23.88;37.87;100464.13;4976416;28;20041;-86
2022/06/29 01:59:12;;;;;;;9.90;2.63;;;;;;;23.89;37.62;100459.31;4976501;28;20393;-85
2022/06/29 02:01:38;;;;;;;8.32;2.35;;;;;;;23.82;38.22;100460.16;4976437;28;20061;-85
2022/06/29 02:04:03;;;;;;;8.65;2.67;;;;;;;23.72;38.05;100456.22;4976319;28;20034;-87
2022/06/29 02:06:29;;;;;;;11.60;2.60;;;;;;;23.69;38.22;100459.06;4975173;28;20027;-84
2022/06/29 02:08:55;;;;;;;14.90;2.90;;;;;;;23.57;38.22;100459.50;4975062;28;20111;-85
2022/06/29 02:11:21;;;;;;;8.05;2.80;;;;;;;23.57;38.31;100467.88;4976075;28;20473;-84
2022/06/29 02:13:46;;;;;;;12.43;2.88;;;;;;;23.61;38.45;100461.09;4991057;28;20027;-85
2022/06/29 02:16:12;;;;;;;10.13;2.28;;;;;;;23.57;38.35;100467.88;4991022;28;20023;-85
2022/06/29 02:18:38;;;;;;;9.95;2.58;;;;;;;23.63;37.88;100461.47;4975308;28;20019;-84
2022/06/29 02:21:04;;;;;;;11.15;2.95;;;;;;;23.58;38.54;100459.13;4990858;28;20370;-83
2022/06/29 02:23:30;;;;;;;10.55;2.40;;;;;;;23.57;38.31;100460.28;4990982;28;20019;-85
2022/06/29 02:25:55;;;;;;;9.95;2.08;;;;;;;23.58;38.47;100461.91;4976058;28;20432;-86
2022/06/29 02:28:21;;;;;;;13.18;3.30;;;;;;;23.58;38.45;100461.91;4990871;28;20054;-86
2022/06/29 02:36:14;;;;;;;12.85;2.75;;;;;;;23.52;38.31;100463.53;4976014;28;20551;-85
2022/06/29 02:38:40;;;;;;;8.38;2.28;;;;;;;23.48;38.55;100462.75;4990715;28;20035;-85
2022/06/29 02:41:06;;;;;;;6.50;2.42;;;;;;;23.48;38.36;100451.59;4990696;28;20066;-85
2022/06/29 02:43:31;;;;;;;7.30;2.75;;;;;;;23.41;38.81;100458.00;4974442;28;20113;-86
2022/06/29 02:45:57;;;;;;;6.03;2.00;;;;;;;23.45;38.49;100453.22;4990736;28;20375;-87
2022/06/29 02:48:23;;;;;;;6.82;2.13;;;;;;;23.43;38.64;100447.25;4975631;28;20033;-84
2022/06/29 02:50:48;;;;;;;13.43;2.53;;;;;;;23.45;38.35;100453.22;4990197;28;20126;-84
2022/06/29 02:53:14;;;;;;;7.07;2.47;;;;;;;23.42;38.38;100450.44;4990231;28;20034;-85
2022/06/29 02:55:39;;;;;;;8.70;1.98;;;;;;;23.42;38.41;100458.78;4990402;28;20085;-85
2022/06/29 02:58:05;;;;;;;15.13;2.55;;;;;;;23.42;38.30;100451.22;4988819;28;20030;-85
2022/06/29 03:00:31;;;;;;;10.88;2.47;;;;;;;23.40;38.41;100448.06;4974500;28;20031;-85
2022/06/29 03:02:57;;;;;;;6.63;2.60;;;;;;;23.43;38.44;100455.63;4990197;28;20045;-85
2022/06/29 03:05:22;;;;;;;9.68;2.65;;;;;;;23.38;38.47;100441.31;4990182;28;20423;-85
2022/06/29 03:07:48;;;;;;;10.18;2.35;;;;;;;23.38;38.50;100452.47;4990080;28;20030;-86
2022/06/29 03:10:13;;;;;;;8.52;2.28;;;;;;;23.29;38.47;100452.13;4975110;28;20062;-83
2022/06/29 03:12:39;;;;;;;8.57;2.00;;;;;;;23.20;38.44;100442.22;4973894;28;20030;-84
2022/06/29 03:15:05;;;;;;;10.25;2.60;;;;;;;23.26;38.35;100445.34;4974908;28;20037;-85
2022/06/29 03:17:31;;;;;;;9.57;2.60;;;;;;;23.25;38.48;100447.34;4973858;28;20037;-85
2022/06/29 03:19:58;;;;;;;10.73;2.45;;;;;;;23.08;38.80;100439.88;4973575;28;20031;-86
2022/06/29 03:22:24;;;;;;;9.18;2.15;;;;;;;23.05;38.85;100439.88;4975075;28;20481;-84
2022/06/29 03:24:50;;;;;;;10.05;2.47;;;;;;;23.04;38.76;100438.28;4974998;28;20050;-85
2022/06/29 03:27:15;;;;;;;8.82;2.33;;;;;;;22.97;39.09;100431.56;4974781;28;20497;-85
2022/06/29 03:29:41;;;;;;;10.70;2.10;;;;;;;22.99;38.85;100436.72;4989759;28;20038;-85
2022/06/29 03:32:08;;;;;;;7.07;2.53;;;;;;;22.98;38.92;100440.72;4973518;28;20034;-86
2022/06/29 03:34:33;;;;;;;19.17;3.22;;;;;;;22.97;39.22;100434.34;4989677;28;20038;-86
2022/06/29 03:36:59;;;;;;;12.05;2.65;;;;;;;22.98;38.90;100435.94;4974731;28;20042;-86
2022/06/29 03:39:24;;;;;;;9.65;2.38;;;;;;;23.06;39.02;100436.69;4973371;28;20031;-85
2022/06/29 03:41:50;;;;;;;5.18;1.95;;;;;;;23.12;38.83;100448.19;4974734;28;20030;-86
2022/06/29 03:44:16;;;;;;;10.60;3.03;;;;;;;23.13;38.92;100447.81;4973129;28;20097;-86
2022/06/29 03:46:41;;;;;;;7.10;2.25;;;;;;;23.14;38.64;100449.41;4974634;28;20026;-85
2022/06/29 03:49:07;;;;;;;6.45;1.88;;;;;;;23.19;38.69;100451.75;4989533;28;20481;-86
2022/06/29 03:51:33;;;;;;;9.57;2.40;;;;;;;23.14;38.64;100443.81;4974078;28;20398;-84
2022/06/29 03:53:59;;;;;;;6.97;2.00;;;;;;;23.20;38.65;100449.75;4973334;28;20033;-85
2022/06/29 03:56:24;;;;;;;5.85;2.17;;;;;;;23.21;38.87;100448.56;4973156;28;20468;-85
2022/06/29 03:58:50;;;;;;;10.52;2.67;;;;;;;23.16;38.75;100444.22;4974386;28;20033;-84
2022/06/29 04:01:16;;;;;;;9.40;2.58;;;;;;;23.18;38.71;100444.59;4974297;28;20045;-85
2022/06/29 04:03:41;;;;;;;9.23;2.83;;;;;;;23.21;38.79;100449.38;4974292;28;20034;-85
2022/06/29 04:06:08;;;;;;;11.35;2.85;;;;;;;23.23;38.59;100446.97;4989253;28;20027;-85
2022/06/29 04:08:35;;;;;;;8.70;2.25;;;;;;;23.23;38.74;100441.38;4989139;28;20089;-84
2022/06/29 04:11:01;;;;;;;9.10;2.85;;;;;;;23.29;38.72;100443.75;4989078;28;20023;-85
2022/06/29 04:13:27;;;;;;;14.30;2.80;;;;;;;23.37;38.60;100446.09;4989166;28;20034;-85
2022/06/29 04:15:52;;;;;;;13.23;2.67;;;;;;;23.26;38.87;100448.94;4974289;28;20150;-85
2022/06/29 04:18:18;;;;;;;8.52;2.30;;;;;;;23.26;38.87;100448.94;4989144;28;20488;-85
2022/06/29 04:23:27;;;;;;;12.13;2.55;;;;;;;23.38;39.00;100447.69;4974440;28;20038;-86
2022/06/29 04:25:53;;;;;;;9.55;2.80;;;;;;;23.45;38.87;100446.84;4974279;28;20474;-85
2022/06/29 04:28:19;;;;;;;7.60;2.00;;;;;;;23.40;38.84;100453.63;4974067;28;20070;-86
2022/06/29 04:30:45;;;;;;;13.27;3.17;;;;;;;23.47;38.97;100450.00;4989127;28;20038;-84
2022/06/29 04:33:10;;;;;;;10.73;2.70;;;;;;;23.48;38.97;100454.38;4989047;28;20031;-86
2022/06/29 04:35:36;;;;;;;7.68;2.22;;;;;;;23.53;39.04;100446.38;4988987;28;20038;-84
2022/06/29 04:38:02;;;;;;;7.07;2.40;;;;;;;23.53;39.15;100448.38;4972917;28;20470;-84
2022/06/29 04:40:27;;;;;;;9.88;2.90;;;;;;;23.56;39.03;100450.34;4989073;28;20031;-84
2022/06/29 04:42:53;;;;;;;11.10;2.50;;;;;;;23.49;39.43;100445.59;4991900;28;20035;-86
2022/06/29 04:48:03;;;;;;;11.57;2.90;;;;;;;23.53;39.28;100445.59;4983942;28;20089;-87
2022/06/29 04:50:29;;;;;;;8.30;2.58;;;;;;;23.61;39.15;100449.94;4995215;28;20030;-86
2022/06/29 04:52:55;;;;;;;8.00;2.47;;;;;;;23.64;39.20;100439.97;4979563;28;20026;-89
2022/06/29 04:55:22;;;;;;;7.53;2.55;;;;;;;23.57;39.47;100443.56;4982350;28;20034;-87
2022/06/29 04:57:47;;;;;;;8.65;2.58;;;;;;;23.62;39.17;100447.94;4984795;28;20049;-85
2022/06/29 05:00:13;;;;;;;11.88;2.35;;;;;;;23.69;39.05;100445.91;4985465;28;20470;-85
2022/06/29 05:02:39;;;;;;;8.88;2.95;;;;;;;23.65;39.19;100450.69;4983217;28;20033;-85
2022/06/29 05:05:05;;;;;;;11.05;3.08;;;;;;;23.65;39.23;100444.34;4984121;28;20023;-85
2022/06/29 05:07:30;;;;;;;8.00;2.03;;;;;;;23.74;39.32;100439.13;4979101;28;20393;-87
2022/06/29 05:09:56;;;;;;;11.43;3.10;;;;;;;23.74;39.20;100450.28;4988832;28;20026;-86
2022/06/29 05:12:21;;;;;;;9.48;3.38;;;;;;;23.75;39.07;100447.06;4997326;28;20040;-87
2022/06/29 05:14:47;;;;;;;11.38;3.40;;;;;;;23.66;39.18;100443.94;4996062;28;20041;-87
2022/06/29 05:17:12;;;;;;;11.20;2.72;;;;;;;23.71;39.20;100448.28;4997239;28;20034;-87
2022/06/29 05:19:38;;;;;;;7.82;2.65;;;;;;;23.71;39.14;100449.06;4992190;28;20037;-87
2022/06/29 05:22:04;;;;;;;10.02;3.13;;;;;;;23.74;39.48;100453.06;4977431;28;20023;-85
2022/06/29 05:24:29;;;;;;;6.90;2.10;;;;;;;23.76;39.40;100459.00;4976165;28;20435;-88
2022/06/29 05:26:55;;;;;;;12.15;2.88;;;;;;;23.77;39.40;100443.84;4977140;28;20054;-85
2022/06/29 05:29:20;;;;;;;5.20;2.38;;;;;;;23.82;39.60;100445.44;4976108;28;20401;-87
2022/06/29 05:31:46;;;;;;;7.22;2.53;;;;;;;23.84;39.52;100445.81;4977226;28;20100;-85
2022/06/29 05:34:11;;;;;;;11.13;3.13;;;;;;;23.90;39.11;100438.59;4975916;28;20444;-86
2022/06/29 05:36:37;;;;;;;6.50;2.05;;;;;;;23.93;39.24;100448.91;4975896;28;20033;-87
2022/06/29 05:39:03;;;;;;;7.18;2.80;;;;;;;23.79;39.57;100453.41;4976034;28;20466;-87
2022/06/29 05:41:28;;;;;;;8.85;2.47;;;;;;;24.00;39.10;100449.66;4975940;28;20167;-86
2022/06/29 05:43:54;;;;;;;8.57;2.78;;;;;;;23.97;39.15;100455.28;4992300;28;20082;-85
2022/06/29 05:46:22;;;;;;;7.22;2.67;;;;;;;23.98;39.32;100448.47;4992585;28;20027;-87
2022/06/29 05:48:48;;;;;;;6.05;2.05;;;;;;;24.01;39.35;100458.81;4975857;28;20093;-86
2022/06/29 05:51:14;;;;;;;9.38;1.90;;;;;;;24.00;39.42;100446.06;4975566;28;20679;-88
2022/06/29 05:53:39;;;;;;;9.07;2.15;;;;;;;24.08;39.05;100453.97;4974996;28;20042;-84
2022/06/29 05:56:06;;;;;;;8.98;2.10;;;;;;;24.08;39.24;100451.16;4992152;28;20031;-89
2022/06/29 05:58:31;;;;;;;6.88;2.13;;;;;;;24.05;39.39;100446.44;4992438;28;20102;-86
2022/06/29 06:00:57;;;;;;;12.57;3.28;;;;;;;24.08;39.32;100453.16;4977530;28;20105;-89
2022/06/29 06:03:23;;;;;;;6.63;2.00;;;;;;;24.15;39.27;100455.91;4977389;28;20458;-88
2022/06/29 06:05:48;;;;;;;8.77;2.47;;;;;;;24.22;39.13;100467.00;4992354;28;20031;-87
2022/06/29 06:08:15;;;;;;;6.75;2.50;;;;;;;24.23;39.06;100456.63;4976008;28;20027;-85
2022/06/29 06:10:41;;;;;;;14.15;7.40;;;;;;;24.24;38.98;100461.00;4975758;28;20031;-88
2022/06/29 06:13:07;;;;;;;15.15;3.22;;;;;;;24.21;39.16;100459.84;4975360;28;20042;-82
2022/06/29 06:15:34;;;;;;;6.75;2.28;;;;;;;24.24;39.17;100453.41;4976391;28;20081;-83
2022/06/29 06:18:01;;;;;;;10.48;2.67;;;;;;;24.28;38.88;100465.34;4975040;28;20397;-82
2022/06/29 06:20:28;;;;;;;5.60;2.20;;;;;;;24.16;39.34;100463.06;4975036;28;20034;-84
2022/06/29 06:22:54;;;;;;;6.10;2.33;;;;;;;24.21;38.94;100467.44;4991096;28;20080;-84
2022/06/29 06:25:20;;;;;;;5.22;1.85;;;;;;;24.17;39.05;100463.84;4976387;28;20027;-85
2022/06/29 06:27:46;;;;;;;3.47;1.60;;;;;;;23.89;39.69;100464.91;4991276;28;20057;-85
2022/06/29 06:30:12;;;;;;;10.27;2.22;;;;;;;24.08;39.17;100478.28;4991132;28;20085;-86
2022/06/29 06:32:38;;;;;;;7.50;1.85;;;;;;;24.04;39.02;100477.53;4976942;28;20022;-85
2022/06/29 06:35:05;;;;;;;5.35;2.15;;;;;;;23.94;39.19;100473.59;4991211;28;20035;-88
2022/06/29 06:37:30;;;;;;;10.13;2.60;;;;;;;23.90;39.26;100481.22;4991327;28;20111;-87
2022/06/29 06:42:40;;;;;;;6.20;1.67;;;;;;;23.84;39.10;100485.66;4976903;28;20062;-87
2022/06/29 06:45:06;;;;;;;4.30;2.00;;;;;;;23.86;39.34;100488.81;4991904;28;20134;-83
2022/06/29 06:47:32;;;;;;;3.92;1.77;;;;;;;23.84;39.16;100484.88;4992007;28;20061;-86
2022/06/29 06:49:58;;;;;;;5.97;2.30;;;;;;;23.82;39.52;100490.06;4990837;28;20058;-87
2022/06/29 06:52:23;;;;;;;7.28;1.75;;;;;;;23.92;39.29;100491.97;4992692;28;20117;-87
2022/06/29 06:54:49;;;;;;;5.47;2.30;;;;;;;24.13;38.98;100496.59;4991595;28;20121;-88
2022/06/29 06:57:14;;;;;;;5.82;2.13;;;;;;;24.18;38.76;100493.34;4976024;28;20030;-87
2022/06/29 06:59:40;;;;;;;20.50;2.80;;;;;;;24.10;39.25;100492.63;4990851;28;20062;-83
2022/06/29 07:02:06;;;;;;;9.15;2.33;;;;;;;24.21;38.73;100501.72;4990542;28;20093;-84
2022/06/29 07:04:32;;;;;;;10.80;2.35;;;;;;;24.07;38.68;100499.81;4972487;28;20031;-91
2022/06/29 07:06:57;;;;;;;4.50;1.70;;;;;;;24.32;38.39;100505.22;4991463;28;20086;-87
2022/06/29 07:09:23;;;;;;;13.30;1.92;;;;;;;24.25;38.60;100504.47;4966539;28;20058;-91
2022/06/29 07:11:48;;;;;;;7.50;2.13;;;;;;;24.33;38.36;100511.59;4971814;28;20039;-86
2022/06/29 07:14:14;;;;;;;11.75;2.08;;;;;;;24.34;38.26;100511.22;4971886;28;20035;-90
2022/06/29 07:16:40;;;;;;;7.18;2.35;;;;;;;24.15;38.50;100510.94;4955755;29;20035;-89
2022/06/29 07:19:06;;;;;;;5.15;2.13;;;;;;;24.36;38.31;100516.38;4970743;28;20410;-86
2022/06/29 07:21:31;;;;;;;5.80;2.03;;;;;;;24.40;38.26;100516.31;4980431;28;20042;-88
2022/06/29 07:23:58;;;;;;;7.20;1.70;;;;;;;24.50;38.09;100513.44;4971236;28;20465;-84
2022/06/29 07:26:27;;;;;;;3.70;1.65;;;;;;;24.55;37.96;100521.38;4990093;28;20034;-85
2022/06/29 07:28:53;;;;;;;9.20;2.50;;;;;;;24.53;37.84;100526.56;4990684;28;20031;-86
2022/06/29 07:31:19;;;;;;;5.32;2.03;;;;;;;24.59;37.75;100524.94;4973623;28;20819;-85
2022/06/29 07:33:45;;;;;;;5.68;1.90;;;;;;;24.54;38.10;100528.16;4974752;28;20041;-85
2022/06/29 07:36:10;;;;;;;15.13;3.60;;;;;;;24.51;38.08;100531.00;4973573;28;20375;-87
2022/06/29 07:38:36;;;;;;;11.55;2.45;;;;;;;24.63;37.74;100530.47;4990240;28;20038;-89
2022/06/29 07:41:02;;;;;;;6.45;2.05;;;;;;;24.53;37.85;100529.38;4973134;28;20026;-85
2022/06/29 07:43:28;;;;;;;6.78;1.73;;;;;;;24.26;39.01;100526.41;4989234;28;20394;-86
2022/06/29 07:45:57;;;;;;;9.90;2.25;;;;;;;24.30;38.38;100529.94;4989320;28;20112;-84
2022/06/29 07:48:24;;;;;;;6.00;1.75;;;;;;;24.23;38.89;100526.41;4973310;28;20037;-85
2022/06/29 07:50:50;;;;;;;7.72;1.75;;;;;;;24.33;38.83;100520.78;4989769;28;20026;-85
2022/06/29 07:53:15;;;;;;;10.10;2.45;;;;;;;23.85;39.74;100531.09;4973785;28;20037;-85
2022/06/29 07:55:44;;;;;;;6.97;2.10;;;;;;;23.64;40.12;100538.38;4974532;28;20026;-87
2022/06/29 07:58:14;;;;;;;6.13;2.08;;;;;;;23.56;40.49;100536.78;4990688;28;20118;-84
2022/06/29 08:00:40;;;;;;;5.68;2.45;;;;;;;23.50;40.45;100538.41;4974401;28;20037;-89
2022/06/29 08:03:06;;;;;;;8.10;1.92;;;;;;;23.57;40.21;100535.59;4975437;28;20038;-88
2022/06/29 08:05:32;;;;;;;4.47;2.47;;;;;;;23.57;40.46;100546.75;4974145;28;20401;-86
2022/06/29 08:07:57;;;;;;;7.72;1.45;;;;;;;23.70;39.90;100542.31;4990243;28;20046;-86
2022/06/29 08:10:24;;;;;;;6.28;2.03;;;;;;;23.85;39.81;100548.63;4975052;28;20504;-87
2022/06/29 08:12:50;;;;;;;8.40;2.40;;;;;;;23.77;39.67;100547.06;4990231;28;20046;-88
2022/06/29 08:15:17;;;;;;;7.05;2.17;;;;;;;23.87;39.26;100551.00;4975076;28;20114;-89
2022/06/29 08:17:44;;;;;;;7.45;2.63;;;;;;;24.14;39.08;100554.81;4974335;28;20025;-86
2022/06/29 08:20:10;;;;;;;6.07;2.22;;;;;;;24.32;38.75;100544.31;4974448;28;20552;-85
2022/06/29 08:22:35;;;;;;;5.90;1.70;;;;;;;24.25;38.66;100546.34;4989172;28;20066;-85
2022/06/29 08:25:01;;;;;;;11.85;3.33;;;;;;;24.51;38.30;100548.56;4974142;28;20039;-85
2022/06/29 08:27:27;;;;;;;7.47;1.80;;;;;;;24.69;37.97;100542.78;4988916;28;20512;-85
2022/06/29 08:29:53;;;;;;;11.20;2.20;;;;;;;24.75;37.98;100545.94;4973296;28;20022;-85
2022/06/29 08:32:18;;;;;;;6.50;1.80;;;;;;;24.79;37.80;100550.28;4989242;28;20096;-85
2022/06/29 08:34:44;;;;;;;6.57;1.77;;;;;;;24.98;36.94;100548.09;4973837;28;20167;-84
2022/06/29 08:37:09;;;;;;;7.82;1.85;;;;;;;25.11;36.59;100551.97;4972798;28;20023;-88
2022/06/29 08:39:35;;;;;;;9.30;2.40;;;;;;;25.10;36.96;100553.19;4989449;28;20639;-88
2022/06/29 08:42:04;;;;;;;10.55;3.55;;;;;;;25.33;36.80;100556.09;4989055;28;20023;-84
2022/06/29 08:44:37;;;;;;;5.65;2.00;;;;;;;25.23;36.37;100556.22;4988638;28;20066;-84
2022/06/29 08:47:03;;;;;;;7.70;2.75;;;;;;;25.44;36.14;100556.75;4972302;28;20031;-85
2022/06/29 08:49:31;;;;;;;6.93;1.90;;;;;;;25.89;35.58;100555.78;4988847;28;20027;-85
2022/06/29 08:51:57;;;;;;;9.52;1.92;;;;;;;26.22;34.95;100557.69;4988194;28;20620;-85
2022/06/29 08:54:26;;;;;;;6.72;2.10;;;;;;;25.97;34.57;100557.25;4972197;28;20513;-88
2022/06/29 08:56:54;;;;;;;6.53;2.10;;;;;;;26.16;34.29;100561.38;4972995;28;20384;-84
2022/06/29 08:59:23;;;;;;;13.50;2.30;;;;;;;26.10;33.66;100565.88;4973000;28;20027;-84
2022/06/29 09:01:52;;;;;;;7.28;2.08;;;;;;;26.37;33.53;100561.00;4987717;28;20485;-89
2022/06/29 09:04:21;;;;;;;5.15;1.63;;;;;;;26.53;33.84;100554.78;4972251;28;20030;-84
2022/06/29 09:06:53;;;;;;;5.53;2.22;;;;;;;26.47;33.09;100551.69;4973956;28;20026;-87
2022/06/29 09:09:18;;;;;;;7.70;2.28;;;;;;;26.89;32.90;100543.72;4973992;28;20027;-86
2022/06/29 09:11:46;;;;;;;9.27;1.98;;;;;;;27.05;33.02;100555.06;4972645;28;20035;-84
2022/06/29 09:14:17;;;;;;;8.60;2.08;;;;;;;27.19;32.59;100553.97;4989285;28;20077;-86
2022/06/29 09:16:49;;;;;;;5.82;2.25;;;;;;;27.11;31.93;100563.75;4989245;28;20031;-90
2022/06/29 09:19:15;;;;;;;7.65;2.13;;;;;;;26.93;31.79;100566.88;4973032;28;20472;-85
2022/06/29 09:21:52;;;;;;;8.15;2.10;;;;;;;27.17;30.63;100564.84;4989213;28;20027;-85
2022/06/29 09:24:23;;;;;;;7.50;1.40;;;;;;;27.21;30.94;100557.16;4974016;28;20438;-86
2022/06/29 09:26:51;;;;;;;7.05;1.48;;;;;;;27.06;30.98;100564.25;4973943;28;20081;-85
2022/06/29 09:29:28;;;;;;;6.25;2.00;;;;;;;27.33;30.79;100559.28;4977272;28;20425;-87
2022/06/29 09:32:06;;;;;;;10.30;1.85;;;;;;;27.28;30.16;100570.22;4990469;28;20023;-85
2022/06/29 09:34:36;;;;;;;4.68;1.42;;;;;;;27.32;30.20;100562.53;4976725;28;20035;-86
2022/06/29 09:37:04;;;;;;;3.53;1.40;;;;;;;27.30;30.23;100567.78;4992451;28;20026;-86
2022/06/29 09:39:38;;;;;;;3.83;1.70;;;;;;;26.85;30.90;100576.63;4992379;28;20027;-85
2022/06/29 09:42:13;;;;;;;5.93;1.65;;;;;;;26.99;30.71;100572.78;4976219;28;20026;-87
2022/06/29 09:44:39;;;;;;;4.50;1.80;;;;;;;27.03;30.62;100573.50;4975886;28;20027;-86
2022/06/29 09:47:08;;;;;;;4.90;1.83;;;;;;;27.32;30.22;100574.53;4977086;28;20022;-85
2022/06/29 09:49:36;;;;;;;4.63;1.73;;;;;;;27.71;29.79;100570.16;4992634;28;20038;-86
2022/06/29 09:52:05;;;;;;;5.00;1.90;;;;;;;28.03;29.14;100577.84;4975794;28;20035;-89
2022/06/29 09:54:36;;;;;;;8.30;2.53;;;;;;;28.07;29.30;100572.94;4975985;28;20031;-86
2022/06/29 09:57:03;;;;;;;5.90;2.22;;;;;;;27.61;29.46;100573.94;4992202;28;20030;-86
2022/06/29 10:02:39;;;;;;;5.93;1.45;;;;;;;27.76;29.36;100578.06;4966081;28;20039;-85
2022/06/29 10:05:22;;;;;;;13.05;2.65;;;;;;;27.69;29.78;100575.41;4992201;28;20043;-86
2022/06/29 10:07:52;;;;;;;5.40;1.55;;;;;;;27.54;28.97;100577.69;4991984;28;20027;-86
2022/06/29 10:10:23;;;;;;;2.10;1.15;;;;;;;28.17;28.64;100583.13;4991631;28;20057;-86
2022/06/29 10:16:02;;;;;;;5.95;1.30;;;;;;;27.74;29.33;100586.13;4976815;28;20040;-84
2022/06/29 10:18:30;;;;;;;3.05;1.10;;;;;;;27.24;30.31;100589.94;4976386;28;20065;-84
2022/06/29 10:20:57;;;;;;;8.02;1.88;;;;;;;27.06;30.71;100587.50;4974978;28;20023;-85
2022/06/29 10:23:56;;;;;;;6.07;1.83;;;;;;;27.45;30.18;100599.94;4975277;28;20027;-84
2022/06/29 10:26:28;;;;;;;3.15;1.30;;;;;;;27.46;30.30;100601.53;4959274;28;20062;-87
2022/06/29 10:28:55;;;;;;;2.38;1.10;;;;;;;27.30;30.72;100601.44;4975262;28;20049;-88
2022/06/29 10:31:53;;;;;;;3.22;1.35;;;;;;;27.32;30.16;100601.81;4991135;28;20404;-84
2022/06/29 10:34:31;;;;;;;8.48;2.38;;;;;;;27.82;29.70;100595.97;4954214;28;20050;-85
2022/06/29 10:37:03;;;;;;;6.85;1.65;;;;;;;27.94;29.49;100594.50;4974562;28;20086;-85
2022/06/29 10:39:49;;;;;;;9.75;1.60;;;;;;;28.12;29.41;100599.72;4974209;28;20034;-83
2022/06/29 10:45:06;;;;;;;;;;;;;;;28.04;30.04;100596.28;4977346;28;20500;-85
2022/06/29 10:47:33;;;;;;;6.80;1.52;;;;;;;28.36;29.72;100600.38;4991069;28;20364;-84
2022/06/29 10:50:28;;;;;;;4.80;2.13;;;;;;;28.58;29.37;100593.00;4975094;28;20465;-84
2022/06/29 10:53:05;;;;;;;3.92;1.30;;;;;;;28.55;30.10;100588.25;4967468;28;20485;-85
2022/06/29 10:55:35;;;;;;;12.05;3.08;;;;;;;28.67;29.54;100595.19;4990874;28;20097;-85
2022/06/29 10:58:02;;;;;;;6.18;1.60;;;;;;;28.93;29.22;100593.31;4974657;28;20563;-86
2022/06/29 11:00:31;;;;;;;6.47;1.67;;;;;;;29.03;28.22;100586.63;4990892;28;20031;-80
2022/06/29 11:02:57;;;;;;;3.05;1.42;;;;;;;29.21;28.73;100592.53;4975583;28;20035;-89
2022/06/29 11:05:23;;;;;;;3.38;1.40;;;;;;;29.23;28.60;100587.25;4990579;28;20081;-82
2022/06/29 11:13:23;;;;;;;3.78;1.00;;;;;;;29.22;28.02;100594.13;4975347;28;20158;-83
2022/06/29 11:15:50;;;;;;;6.35;1.25;;;;;;;29.38;27.51;100600.94;4974276;28;20125;-83
2022/06/29 11:18:18;;;;;;;11.73;2.65;;;;;;;29.32;27.81;100600.66;4974331;28;20548;-83
2022/06/29 11:20:48;;;;;;;3.45;1.10;;;;;;;29.26;28.11;100597.63;4974003;28;20034;-91
2022/06/29 11:23:16;;;;;;;2.80;1.30;;;;;;;29.45;27.78;100597.91;4974018;28;20563;-93
2022/06/29 11:25:46;;;;;;;5.32;1.83;;;;;;;29.47;28.00;100593.44;4974909;28;20037;-89
2022/06/29 11:28:12;;;;;;;5.15;1.95;;;;;;;29.64;28.24;100585.72;4973870;28;20058;-92
2022/06/29 11:30:39;;;;;;;3.80;1.20;;;;;;;29.80;28.18;100588.44;4974730;28;20038;-82
2022/06/29 11:33:11;;;;;;;5.78;1.40;;;;;;;29.68;27.77;100592.00;4974958;28;20039;-92
2022/06/29 11:35:42;;;;;;;4.50;2.10;;;;;;;30.04;27.73;100593.75;4974713;28;20042;-83
2022/06/29 11:38:08;;;;;;;2.42;1.00;;;;;;;30.21;27.49;100592.41;4989752;28;20019;-84
2022/06/29 11:40:35;;;;;;;3.63;1.23;;;;;;;30.28;27.17;100592.19;4973407;28;20023;-83
2022/06/29 11:43:09;;;;;;;4.18;1.00;;;;;;;30.18;26.77;100590.50;4973667;28;20489;-92
2022/06/29 11:45:40;;;;;;;4.55;1.67;;;;;;;30.29;26.42;100596.56;4989753;28;20031;-81
2022/06/29 11:48:13;;;;;;;4.50;1.25;;;;;;;30.24;26.18;100588.72;4973269;28;20022;-82
2022/06/29 11:50:47;;;;;;;4.57;1.40;;;;;;;30.12;26.82;100597.94;4972853;28;20093;-82
2022/06/29 11:53:16;;;;;;;4.63;1.35;;;;;;;30.25;26.34;100587.47;4973791;28;20037;-93